ETOU/WIE METAR and TAF weather

Enter ICAO airport designator
Station Type Date Time Source
ETOU METAR 2018/12/12 15:56 UTC NOAA

ETOU 121556Z AUTO 02003KT 9999 SCT047 04/M04 A3021 RMK AO2 SLP238 T00381039 $


Station Type Date Time Source
ETOU Decoded METAR 2018/12/12 15:56 UTC NOAA

Wiesbaden, Germany (ETOU) 50-03N 008-20E
Dec 12, 2018 - 10:56 AM EST / 2018.12.12 1556 UTC
Wind: from the NNE (020 degrees) at 3 MPH (3 KT):0
Visibility: greater than 7 mile(s):0
Sky conditions: partly cloudy
Temperature: 38.8 F (3.8 C)
Dew Point: 25.0 F (-3.9 C)
Relative Humidity: 57%
Pressure (altimeter): 30.21 in. Hg (1023 hPa)
ob: ETOU 121556Z AUTO 02003KT 9999 SCT047 04/M04 A3021 RMK AO2 SLP238 T00381039
cycle: 16

Station Type Date Time Source
ETOU TAF 2018/12/12 12:15 UTC NOAA

TAF TAF ETOU 121209Z 1212/1318 VRB06KT 9999 BKN030 620303 QNH3023INS
BECMG 1221/1222 VRB06KT 9999 FEW030 QNH3015INS
TEMPO 1222/1304 8000 BR
BECMG 1309/1310 06012KT 9999 SCT040 QNH3010INS TX06/1213Z TNM03/1306Z


Example: see airport list